Time;durP1;ratioP1;P1;durP2;ratioP2;P2;SDS_P1;SDS_P2;PMS_P1;PMS_P2;Temp;Humidity;BMP_temperature;BMP_pressure;BME280_temperature;BME280_humidity;BME280_pressure;Samples;Min_cycle;Max_cycle;Signal;HPM_P1;HPM_P2
2022/12/29 00:01:57;;;;;;;3.92;1.58;;;;;;;4.97;71.16;100035.84;6210088;23;20047;-72
2022/12/29 00:04:24;;;;;;;2.72;1.52;;;;;;;4.97;71.31;100027.88;6212067;23;20032;-72
2022/12/29 00:06:52;;;;;;;2.85;1.70;;;;;;;5.05;71.08;100025.38;6211784;23;20330;-72
2022/12/29 00:09:18;;;;;;;3.55;1.60;;;;;;;5.03;71.43;100022.00;6211669;23;20386;-72
2022/12/29 00:11:45;;;;;;;3.78;1.55;;;;;;;4.99;71.30;100020.63;6211672;23;20034;-72
2022/12/29 00:16:57;;;;;;;3.72;1.75;;;;;;;4.95;70.88;100016.56;6209299;23;20095;-72
2022/12/29 00:36:16;;;;;;;3.42;1.42;;;;;;;5.26;69.62;99996.78;6212518;23;20095;-72
2022/12/29 00:44:19;;;;;;;4.97;1.83;;;;;;;5.07;70.16;99986.19;6212389;23;20036;-72
2022/12/29 00:46:45;;;;;;;4.15;1.70;;;;;;;5.17;70.02;99997.63;6213329;23;20029;-70
2022/12/29 00:49:32;;;;;;;3.65;1.55;;;;;;;5.19;70.08;99990.38;6210383;23;20021;-71
2022/12/29 00:52:08;;;;;;;4.47;1.60;;;;;;;5.11;70.28;99978.75;6211748;23;20024;-71
2022/12/29 00:54:37;;;;;;;3.72;1.92;;;;;;;5.03;70.50;99979.47;6211553;23;20096;-71
2022/12/29 00:57:06;;;;;;;5.57;1.40;;;;;;;5.04;70.65;99978.50;6212821;23;20103;-72
2022/12/29 00:59:35;;;;;;;6.93;1.83;;;;;;;5.12;70.25;99988.44;6212594;23;20449;-70
2022/12/29 01:02:02;;;;;;;2.75;1.75;;;;;;;5.14;70.51;99978.47;6208975;23;20055;-72
2022/12/29 01:04:29;;;;;;;5.97;1.80;;;;;;;4.94;70.89;99972.38;6211865;23;20016;-72
2022/12/29 01:06:55;;;;;;;4.22;1.58;;;;;;;5.10;70.25;99975.25;6213072;23;20035;-72
2022/12/29 01:12:09;;;;;;;3.58;1.40;;;;;;;5.11;70.67;99970.78;6212125;23;20100;-71
2022/12/29 01:14:37;;;;;;;3.45;1.50;;;;;;;5.22;70.64;99982.09;6212616;23;20410;-72
2022/12/29 01:17:04;;;;;;;4.40;1.83;;;;;;;5.20;70.39;99977.91;6212139;23;20034;-72
2022/12/29 01:19:31;;;;;;;3.25;1.67;;;;;;;5.30;70.46;99973.41;6201524;23;20047;-71
2022/12/29 01:21:57;;;;;;;3.47;1.60;;;;;;;5.17;69.87;99971.03;6212697;23;20353;-70
2022/12/29 01:24:25;;;;;;;2.83;1.60;;;;;;;5.19;69.81;99963.78;6212660;23;20390;-71
2022/12/29 01:26:54;;;;;;;2.75;1.70;;;;;;;5.16;69.83;99982.66;6212408;23;20024;-71
2022/12/29 01:29:21;;;;;;;6.82;1.40;;;;;;;5.27;69.34;99979.84;6210653;23;20017;-71
2022/12/29 01:31:49;;;;;;;3.92;1.38;;;;;;;5.18;69.58;99983.38;6213205;23;20036;-71
2022/12/29 01:34:16;;;;;;;4.65;1.70;;;;;;;5.20;69.27;99968.09;6211475;23;20448;-70
2022/12/29 01:36:43;;;;;;;6.28;2.80;;;;;;;5.37;69.28;99979.81;6212462;23;20331;-72
2022/12/29 01:39:10;;;;;;;9.43;2.35;;;;;;;5.21;69.86;99964.47;6212000;23;20100;-72
2022/12/29 01:41:36;;;;;;;4.10;1.50;;;;;;;5.29;70.23;99964.59;6212455;23;20071;-71
2022/12/29 01:44:42;;;;;;;3.35;1.77;;;;;;;5.14;70.29;99971.31;6211703;23;20475;-71
2022/12/29 01:47:08;;;;;;;3.83;1.73;;;;;;;5.13;70.78;99972.31;6211772;23;20020;-71
2022/12/29 01:49:35;;;;;;;2.85;1.50;;;;;;;5.25;70.88;99975.66;6212609;23;20087;-71
2022/12/29 01:52:06;;;;;;;3.88;1.60;;;;;;;5.18;71.15;99963.91;6212020;23;20119;-71
2022/12/29 01:54:47;;;;;;;6.40;1.88;;;;;;;5.31;71.08;99966.25;6211619;23;20024;-71
2022/12/29 01:57:20;;;;;;;4.87;1.70;;;;;;;5.10;71.53;99963.78;6212276;23;20024;-71
2022/12/29 01:59:55;;;;;;;4.18;1.58;;;;;;;5.07;71.39;99951.63;6212669;23;20030;-71
2022/12/29 02:02:22;;;;;;;4.63;1.33;;;;;;;5.17;71.33;99946.28;6212114;23;20043;-71
2022/12/29 02:04:51;;;;;;;3.67;1.83;;;;;;;5.26;71.18;99943.59;6212905;23;20343;-71
2022/12/29 02:07:26;;;;;;;2.47;1.48;;;;;;;5.10;71.30;99947.84;6213668;23;20022;-70
2022/12/29 02:09:55;;;;;;;3.03;1.63;;;;;;;5.32;70.71;99941.31;6208877;23;20100;-71
2022/12/29 02:12:23;;;;;;;5.28;1.80;;;;;;;5.16;70.69;99937.47;6214286;23;20020;-71
2022/12/29 02:14:56;;;;;;;4.90;1.58;;;;;;;5.23;70.36;99943.88;6210750;23;20030;-71
2022/12/29 02:17:53;;;;;;;3.38;1.30;;;;;;;5.22;69.68;99938.72;6209668;23;20103;-71
2022/12/29 02:20:47;;;;;;;4.20;1.80;;;;;;;5.10;69.80;99931.88;6211347;23;20024;-71
2022/12/29 02:23:45;;;;;;;2.33;1.58;;;;;;;5.19;69.25;99918.56;6213272;23;20055;-71
2022/12/29 02:26:33;;;;;;;3.92;1.60;;;;;;;5.21;68.61;99918.41;6212668;23;20020;-72
2022/12/29 02:29:18;;;;;;;3.85;1.80;;;;;;;5.32;68.47;99914.72;6213393;23;20020;-71
2022/12/29 02:32:15;;;;;;;5.22;1.63;;;;;;;5.41;68.08;99916.53;6212984;23;20102;-71
2022/12/29 02:35:08;;;;;;;5.95;1.70;;;;;;;5.38;68.03;99920.31;6212112;23;20402;-71
2022/12/29 02:37:47;;;;;;;8.48;1.60;;;;;;;5.35;67.43;99915.31;6206630;23;20519;-72
2022/12/29 02:40:34;;;;;;;3.03;1.27;;;;;;;5.44;67.28;99909.09;6212906;23;20020;-71
2022/12/29 02:43:36;;;;;;;5.72;1.50;;;;;;;5.45;67.09;99913.41;6212886;23;20025;-70
2022/12/29 02:46:27;;;;;;;4.90;1.70;;;;;;;5.53;67.01;99913.53;6210732;23;20031;-71
2022/12/29 02:49:11;;;;;;;3.42;1.48;;;;;;;5.47;66.98;99916.78;6201980;23;20020;-72
2022/12/29 02:51:40;;;;;;;3.03;1.75;;;;;;;5.65;66.14;99911.50;6211391;23;20024;-71
2022/12/29 02:56:52;;;;;;;3.47;1.55;;;;;;;5.66;66.34;99915.84;6208561;23;20091;-71
2022/12/29 02:59:20;;;;;;;3.55;1.60;;;;;;;5.85;65.71;99909.56;6211527;23;20013;-71
2022/12/29 03:02:24;;;;;;;5.78;1.30;;;;;;;5.73;65.85;99913.41;6211577;23;20373;-71
2022/12/29 03:05:16;;;;;;;3.28;1.40;;;;;;;5.74;65.81;99902.63;6169887;23;20020;-72
2022/12/29 03:08:05;;;;;;;4.65;1.92;;;;;;;5.65;65.80;99897.38;6211990;23;20056;-71
2022/12/29 03:10:45;;;;;;;4.05;1.40;;;;;;;5.83;65.34;99894.72;6212351;23;20031;-72
2022/12/29 03:16:22;;;;;;;2.55;1.40;;;;;;;5.88;65.12;99872.00;6211358;23;20024;-71
2022/12/29 03:18:48;;;;;;;2.40;1.10;;;;;;;5.93;65.06;99879.53;6211010;23;20024;-72
2022/12/29 03:24:22;;;;;;;1.83;1.25;;;;;;;5.90;65.22;99869.19;6204716;23;20027;-71
2022/12/29 03:26:52;;;;;;;3.00;1.30;;;;;;;5.97;64.85;99870.25;6212084;23;20024;-72
2022/12/29 03:29:20;;;;;;;2.75;1.50;;;;;;;5.81;65.00;99870.94;6212261;23;20099;-71
2022/12/29 03:31:49;;;;;;;5.32;1.50;;;;;;;5.95;64.57;99874.91;6211870;23;20420;-72
2022/12/29 03:34:20;;;;;;;5.68;1.27;;;;;;;5.97;64.79;99880.91;6211520;23;20092;-71
2022/12/29 03:36:56;;;;;;;2.03;1.25;;;;;;;6.08;64.51;99863.88;6212437;23;20028;-71
2022/12/29 03:39:25;;;;;;;4.22;1.70;;;;;;;5.96;64.90;99864.09;6212218;23;20024;-71
2022/12/29 03:41:57;;;;;;;3.10;1.30;;;;;;;6.01;64.95;99874.31;6213116;23;20033;-71
2022/12/29 03:44:33;;;;;;;3.88;1.38;;;;;;;6.09;64.92;99861.06;6209345;23;20020;-72
2022/12/29 03:46:59;;;;;;;3.83;1.42;;;;;;;6.02;65.19;99861.84;6213260;23;20020;-70
2022/12/29 03:49:26;;;;;;;6.05;1.50;;;;;;;6.03;65.16;99859.00;6209976;23;20020;-71
2022/12/29 03:51:52;;;;;;;1.75;1.20;;;;;;;6.03;64.95;99866.16;6212613;23;20025;-71
2022/12/29 03:54:18;;;;;;;4.20;1.60;;;;;;;6.04;65.40;99865.16;6209084;23;20480;-71
2022/12/29 03:56:45;;;;;;;7.28;1.80;;;;;;;6.31;65.00;99873.09;6213045;23;20027;-70
2022/12/29 03:59:11;;;;;;;2.10;1.30;;;;;;;5.97;65.92;99867.59;6211516;23;20024;-72
2022/12/29 04:01:38;;;;;;;2.35;1.60;;;;;;;5.96;65.61;99871.25;6211089;23;20036;-71
2022/12/29 04:04:05;;;;;;;5.72;1.60;;;;;;;6.13;65.49;99867.75;6209982;23;20067;-71
2022/12/29 04:06:31;;;;;;;4.05;1.58;;;;;;;6.19;65.40;99859.16;6203478;23;20020;-71
2022/12/29 04:08:58;;;;;;;6.50;1.55;;;;;;;6.10;65.13;99865.41;6229580;23;20021;-71
2022/12/29 04:11:24;;;;;;;2.40;1.48;;;;;;;6.23;65.27;99865.84;6210621;23;20031;-72
2022/12/29 04:13:58;;;;;;;4.85;1.48;;;;;;;6.13;65.20;99866.94;6212134;23;20017;-72
2022/12/29 04:16:24;;;;;;;3.72;1.42;;;;;;;6.18;65.28;99860.16;6210267;23;20092;-71
2022/12/29 04:18:51;;;;;;;4.50;1.40;;;;;;;6.08;65.39;99859.41;6209972;23;20492;-72
2022/12/29 04:21:17;;;;;;;4.53;1.52;;;;;;;6.16;65.04;99871.94;6209974;23;20458;-71
2022/12/29 04:23:44;;;;;;;3.80;1.27;;;;;;;6.13;65.04;99872.25;6209792;23;20071;-70
2022/12/29 04:26:11;;;;;;;2.83;1.63;;;;;;;6.22;64.83;99874.84;6210437;23;20544;-70
2022/12/29 04:28:37;;;;;;;3.45;1.65;;;;;;;6.34;64.95;99863.97;6210293;23;20100;-70
2022/12/29 04:31:04;;;;;;;3.70;1.27;;;;;;;6.33;64.38;99851.66;6214524;23;20024;-70
2022/12/29 04:33:31;;;;;;;2.92;1.48;;;;;;;6.30;64.62;99857.28;6210933;23;20066;-71
2022/12/29 04:35:57;;;;;;;4.65;1.88;;;;;;;6.36;64.65;99840.69;6210327;23;20084;-71
2022/12/29 04:38:24;;;;;;;3.00;1.73;;;;;;;6.26;64.67;99842.63;6211004;23;20020;-75
2022/12/29 04:40:51;;;;;;;5.78;1.98;;;;;;;6.35;64.35;99841.66;6213236;23;20024;-75
2022/12/29 04:43:22;;;;;;;3.72;1.63;;;;;;;6.34;64.76;99853.31;6221499;23;20083;-76
2022/12/29 04:45:49;;;;;;;4.57;1.70;;;;;;;6.36;64.48;99854.84;6213633;23;20090;-75
2022/12/29 04:48:15;;;;;;;2.88;1.60;;;;;;;6.31;64.88;99850.97;6213023;23;20346;-75
2022/12/29 04:50:43;;;;;;;4.15;1.52;;;;;;;6.23;64.98;99851.72;6213073;23;20024;-74
2022/12/29 04:53:10;;;;;;;5.45;1.92;;;;;;;6.31;64.23;99849.13;6212257;23;20092;-75
2022/12/29 04:55:36;;;;;;;7.22;1.67;;;;;;;6.26;65.06;99834.63;6212237;23;20088;-75
2022/12/29 04:58:03;;;;;;;4.60;1.80;;;;;;;6.29;64.72;99828.97;6213130;23;20096;-75
2022/12/29 05:00:30;;;;;;;3.28;1.40;;;;;;;6.35;64.88;99831.00;6213219;23;20432;-75
2022/12/29 05:02:56;;;;;;;8.07;1.92;;;;;;;6.44;64.96;99840.75;6212691;23;20021;-75
2022/12/29 05:05:23;;;;;;;2.63;1.52;;;;;;;6.30;65.12;99858.13;6206557;23;20095;-75
2022/12/29 05:07:50;;;;;;;3.85;1.65;;;;;;;6.47;64.85;99848.44;6211317;23;20016;-72
2022/12/29 05:10:16;;;;;;;3.42;1.30;;;;;;;6.42;64.86;99843.56;6211076;23;20519;-75
2022/12/29 05:12:44;;;;;;;4.55;1.60;;;;;;;6.47;65.02;99835.13;6210891;23;20123;-75
2022/12/29 05:15:11;;;;;;;5.22;1.98;;;;;;;6.53;64.60;99838.97;6213822;23;20449;-74
2022/12/29 05:17:37;;;;;;;3.38;1.42;;;;;;;6.42;65.14;99826.72;6213656;23;20016;-74
2022/12/29 05:20:05;;;;;;;3.40;1.65;;;;;;;6.52;64.73;99819.47;6211718;23;20095;-75
2022/12/29 05:22:33;;;;;;;2.35;1.50;;;;;;;6.64;64.52;99826.25;6213892;23;20515;-74
2022/12/29 05:24:59;;;;;;;2.65;1.30;;;;;;;6.48;65.22;99821.63;6213182;23;20020;-75
2022/12/29 05:27:26;;;;;;;3.03;1.90;;;;;;;6.54;65.09;99816.69;6211760;23;20519;-74
2022/12/29 05:29:52;;;;;;;3.40;1.80;;;;;;;6.45;65.51;99813.09;6213003;23;20059;-75
2022/12/29 05:32:19;;;;;;;3.47;1.30;;;;;;;6.46;65.17;99809.47;6212730;23;20099;-74
2022/12/29 05:34:46;;;;;;;4.00;1.70;;;;;;;6.52;65.23;99806.16;6213384;23;20051;-75
2022/12/29 05:37:12;;;;;;;1.73;1.15;;;;;;;6.53;64.88;99807.84;6213006;23;20418;-75
2022/12/29 05:39:39;;;;;;;4.05;1.67;;;;;;;6.61;65.18;99799.91;6222748;23;20015;-75
2022/12/29 05:42:06;;;;;;;2.45;1.30;;;;;;;6.63;65.50;99795.25;6213031;23;20430;-73
2022/12/29 05:44:33;;;;;;;2.15;1.23;;;;;;;6.65;65.26;99797.75;6212585;23;20493;-73
2022/12/29 05:46:59;;;;;;;6.32;1.73;;;;;;;6.77;65.12;99795.66;6213230;23;20378;-75
2022/12/29 05:49:26;;;;;;;4.15;1.67;;;;;;;6.66;65.36;99792.25;6207739;23;20326;-75
2022/12/29 05:51:52;;;;;;;2.33;1.58;;;;;;;6.71;65.05;99794.47;6220333;23;21930;-75
2022/12/29 05:54:19;;;;;;;4.68;1.40;;;;;;;6.73;65.35;99796.97;6211943;23;20076;-74
2022/12/29 05:56:45;;;;;;;2.65;1.25;;;;;;;6.70;65.30;99788.31;6214718;23;20454;-74
2022/12/29 05:59:12;;;;;;;4.60;1.42;;;;;;;6.95;64.60;99796.44;6210645;23;20020;-75
2022/12/29 06:01:38;;;;;;;2.53;1.23;;;;;;;6.94;64.76;99792.94;6212825;23;20044;-77
2022/12/29 06:04:05;;;;;;;3.92;1.40;;;;;;;6.87;64.90;99783.03;6209888;23;20061;-73
2022/12/29 06:06:32;;;;;;;4.72;1.55;;;;;;;6.90;65.15;99774.72;6214930;23;20048;-75
2022/12/29 06:08:58;;;;;;;1.92;1.17;;;;;;;6.87;65.01;99785.69;6214888;23;20025;-75
2022/12/29 06:11:25;;;;;;;3.47;1.45;;;;;;;6.95;65.11;99783.09;6212848;23;20031;-75
2022/12/29 06:13:51;;;;;;;4.13;1.23;;;;;;;7.09;64.44;99790.50;6214391;23;20103;-76
2022/12/29 06:16:18;;;;;;;5.70;1.38;;;;;;;6.91;65.22;99782.59;6211253;23;20100;-74
2022/12/29 06:18:45;;;;;;;4.93;1.40;;;;;;;7.07;64.51;99781.81;6212632;23;20017;-73
2022/12/29 06:21:11;;;;;;;3.22;1.48;;;;;;;6.99;65.08;99781.78;6211586;23;20020;-76
2022/12/29 06:23:38;;;;;;;6.20;1.38;;;;;;;7.04;64.83;99786.63;6214199;23;20040;-75
2022/12/29 06:26:05;;;;;;;1.83;1.15;;;;;;;7.12;64.89;99790.16;6211190;23;20438;-75
2022/12/29 06:28:31;;;;;;;2.50;1.33;;;;;;;6.95;64.93;99781.25;6213149;23;20019;-75
2022/12/29 06:30:58;;;;;;;3.53;1.27;;;;;;;7.17;64.75;99793.19;6201356;23;20047;-76
2022/12/29 06:33:24;;;;;;;2.55;1.35;;;;;;;6.93;65.23;99801.06;6211930;23;20052;-75
2022/12/29 06:35:51;;;;;;;1.88;1.30;;;;;;;7.14;64.73;99774.81;6210762;23;20458;-75
2022/12/29 06:38:17;;;;;;;2.03;1.33;;;;;;;7.25;64.12;99784.38;6211640;23;20100;-76
2022/12/29 06:40:44;;;;;;;3.17;1.48;;;;;;;7.18;64.77;99784.16;6208879;23;20394;-76
2022/12/29 06:43:11;;;;;;;3.45;1.52;;;;;;;6.92;64.92;99799.41;6212247;23;20094;-75
2022/12/29 06:45:39;;;;;;;2.67;1.25;;;;;;;7.13;64.82;99791.00;6203872;23;20016;-74
2022/12/29 06:48:07;;;;;;;4.75;1.23;;;;;;;7.10;64.83;99800.16;6214052;23;20027;-74
2022/12/29 06:50:33;;;;;;;2.97;1.27;;;;;;;7.07;64.88;99802.31;6210217;23;20043;-74
2022/12/29 06:53:00;;;;;;;2.50;1.38;;;;;;;7.12;65.11;99808.00;6223482;23;20051;-74
2022/12/29 06:55:28;;;;;;;4.82;1.67;;;;;;;7.01;65.03;99813.59;6212370;23;20035;-76
2022/12/29 06:57:58;;;;;;;2.95;1.20;;;;;;;7.02;64.90;99813.47;6212515;23;20105;-73
2022/12/29 07:00:24;;;;;;;2.83;1.23;;;;;;;6.98;65.41;99816.59;6213752;23;20024;-75
2022/12/29 07:02:51;;;;;;;6.00;1.02;;;;;;;7.01;65.12;99809.09;6212814;23;20028;-75
2022/12/29 07:05:18;;;;;;;3.17;1.00;;;;;;;7.18;64.78;99815.34;6209637;23;20021;-75
2022/12/29 07:07:45;;;;;;;4.28;1.20;;;;;;;7.06;64.65;99811.31;6213867;23;20028;-74
2022/12/29 07:10:12;;;;;;;4.68;1.33;;;;;;;6.93;65.29;99815.25;6213121;23;20023;-75
2022/12/29 07:12:38;;;;;;;1.92;1.00;;;;;;;6.95;64.93;99815.09;6212813;23;20040;-74
2022/12/29 07:15:05;;;;;;;4.97;1.02;;;;;;;6.92;65.33;99818.06;6214378;23;20027;-74
2022/12/29 07:17:32;;;;;;;6.78;1.48;;;;;;;6.92;65.39;99821.56;6214465;23;20327;-75
2022/12/29 07:19:59;;;;;;;3.20;1.13;;;;;;;6.88;65.27;99816.72;6212774;23;20017;-74
2022/12/29 07:22:25;;;;;;;1.77;1.35;;;;;;;6.82;65.67;99817.34;6214315;23;20066;-74
2022/12/29 07:24:52;;;;;;;1.83;1.05;;;;;;;6.88;65.61;99822.88;6213406;23;20099;-74
2022/12/29 07:27:18;;;;;;;2.42;1.00;;;;;;;6.88;65.75;99819.38;6213208;23;20024;-75
2022/12/29 07:29:45;;;;;;;3.33;1.40;;;;;;;6.79;65.95;99823.00;6213134;23;20419;-74
2022/12/29 07:32:12;;;;;;;3.97;1.20;;;;;;;6.80;65.88;99820.16;6227542;22;20060;-70
2022/12/29 07:34:39;;;;;;;4.90;1.58;;;;;;;6.95;65.74;99820.44;6251809;22;20000;-71
2022/12/29 07:37:06;;;;;;;4.20;1.10;;;;;;;6.85;65.72;99817.03;6240305;22;20017;-69
2022/12/29 07:39:32;;;;;;;4.60;1.58;;;;;;;6.97;65.71;99813.09;6237053;22;20020;-68
2022/12/29 07:41:59;;;;;;;2.53;1.15;;;;;;;6.83;65.99;99817.19;6239665;23;20008;-69
2022/12/29 07:44:30;;;;;;;4.55;1.33;;;;;;;6.78;66.37;99813.34;6238481;22;20048;-70
2022/12/29 07:46:57;;;;;;;3.47;1.98;;;;;;;6.95;66.06;99805.25;6230535;23;20032;-68
2022/12/29 07:49:25;;;;;;;3.17;1.85;;;;;;;7.10;65.87;99821.50;6235384;23;20008;-69
2022/12/29 07:51:52;;;;;;;3.50;1.48;;;;;;;6.99;65.87;99811.09;6239091;22;20040;-68
2022/12/29 07:54:18;;;;;;;4.70;1.65;;;;;;;7.07;65.66;99818.31;6237903;22;20008;-70
2022/12/29 07:56:45;;;;;;;3.22;1.70;;;;;;;7.10;65.76;99818.00;6238276;23;20029;-70
2022/12/29 07:59:12;;;;;;;4.43;1.60;;;;;;;7.02;65.50;99815.28;6239819;23;20012;-71
2022/12/29 08:01:38;;;;;;;11.02;1.35;;;;;;;7.19;65.59;99812.53;6238481;23;20013;-71
2022/12/29 08:04:05;;;;;;;3.08;1.50;;;;;;;7.11;65.71;99815.16;6239878;23;20013;-69
2022/12/29 08:06:32;;;;;;;2.75;1.52;;;;;;;7.02;65.46;99828.63;6238506;23;20088;-69
2022/12/29 08:09:00;;;;;;;3.00;1.58;;;;;;;7.29;64.94;99812.41;6232890;23;20040;-70
2022/12/29 08:11:38;;;;;;;2.47;1.20;;;;;;;7.27;64.98;99811.72;6235385;22;20017;-74
2022/12/29 08:14:04;;;;;;;3.00;1.50;;;;;;;7.28;65.02;99812.56;6239425;23;20028;-70
2022/12/29 08:16:32;;;;;;;2.83;1.55;;;;;;;7.32;64.58;99797.91;6239076;22;20024;-70
2022/12/29 08:18:59;;;;;;;2.33;1.23;;;;;;;7.32;64.59;99804.06;6238017;22;20017;-70
2022/12/29 08:21:27;;;;;;;1.83;1.05;;;;;;;7.28;64.89;99812.56;6228429;23;20025;-69
2022/12/29 08:23:53;;;;;;;4.30;1.85;;;;;;;7.37;64.72;99815.09;6253699;22;20005;-71
2022/12/29 08:26:20;;;;;;;3.85;1.50;;;;;;;7.30;64.85;99815.91;6239011;22;20023;-70
2022/12/29 08:28:47;;;;;;;10.68;4.43;;;;;;;7.37;64.67;99799.09;6237837;22;20021;-68
2022/12/29 08:31:13;;;;;;;7.00;2.75;;;;;;;7.50;64.23;99808.44;6238475;23;20035;-72
2022/12/29 08:33:40;;;;;;;8.85;4.45;;;;;;;7.41;64.85;99810.28;6232336;23;20068;-72
2022/12/29 08:36:07;;;;;;;5.57;2.75;;;;;;;7.31;64.95;99801.56;6238237;23;20012;-68
2022/12/29 08:38:33;;;;;;;9.43;4.38;;;;;;;7.34;64.82;99793.25;6238769;23;20047;-69
2022/12/29 08:41:02;;;;;;;6.65;2.30;;;;;;;7.41;64.75;99800.44;6238040;23;20068;-69
2022/12/29 08:43:30;;;;;;;6.07;2.83;;;;;;;7.48;64.43;99797.13;6237216;22;20020;-69
2022/12/29 08:46:00;;;;;;;5.65;2.42;;;;;;;7.53;64.50;99803.63;6235832;23;20064;-70
2022/12/29 08:48:27;;;;;;;4.47;2.00;;;;;;;7.47;64.30;99801.63;6237371;23;20004;-72
2022/12/29 08:50:53;;;;;;;6.35;2.65;;;;;;;7.46;64.42;99807.94;6238155;23;20040;-69
2022/12/29 08:53:20;;;;;;;5.65;2.28;;;;;;;7.41;64.51;99810.28;6232184;22;20040;-68
2022/12/29 08:55:47;;;;;;;6.90;1.90;;;;;;;7.45;64.63;99790.25;6244419;22;20044;-70
2022/12/29 08:58:14;;;;;;;6.32;1.70;;;;;;;7.45;64.26;99798.28;6238478;22;20012;-72
2022/12/29 09:00:42;;;;;;;2.67;1.55;;;;;;;7.68;63.94;99800.34;6237553;22;20024;-72
2022/12/29 09:03:08;;;;;;;8.88;2.10;;;;;;;7.59;64.40;99791.47;6238781;22;20012;-73
2022/12/29 09:05:36;;;;;;;4.60;2.03;;;;;;;7.56;64.21;99776.59;6239164;22;20004;-70
2022/12/29 09:08:03;;;;;;;5.95;1.88;;;;;;;7.65;63.87;99782.81;6238483;22;20013;-69
2022/12/29 09:10:30;;;;;;;4.85;2.55;;;;;;;7.67;63.71;99788.81;6237070;22;20036;-71
2022/12/29 09:12:57;;;;;;;5.95;2.13;;;;;;;7.84;63.62;99795.03;6237961;22;20044;-69
2022/12/29 09:15:24;;;;;;;3.70;1.52;;;;;;;7.86;63.53;99783.19;6235213;22;20020;-70
2022/12/29 09:17:50;;;;;;;6.35;2.00;;;;;;;7.79;63.87;99792.00;6238438;22;20071;-70
2022/12/29 09:20:19;;;;;;;5.38;2.17;;;;;;;7.80;63.52;99788.34;6237630;22;20025;-72
2022/12/29 09:22:46;;;;;;;3.72;1.60;;;;;;;7.75;63.40;99786.16;6236031;22;20043;-72
2022/12/29 09:25:13;;;;;;;4.97;1.63;;;;;;;7.75;63.65;99785.34;6237705;22;20012;-71
2022/12/29 09:27:40;;;;;;;4.55;1.67;;;;;;;7.97;63.16;99792.72;6236858;23;20019;-69
2022/12/29 09:30:09;;;;;;;3.55;1.40;;;;;;;7.98;63.29;99786.38;6249160;23;20004;-72
2022/12/29 09:32:36;;;;;;;4.40;1.67;;;;;;;7.93;63.18;99777.19;6238304;22;20024;-69
2022/12/29 09:35:11;;;;;;;3.28;1.55;;;;;;;7.99;62.97;99781.88;6238037;23;20024;-70
2022/12/29 09:37:38;;;;;;;2.47;1.20;;;;;;;8.05;63.00;99781.19;6237789;22;20035;-69
2022/12/29 09:40:06;;;;;;;5.97;1.20;;;;;;;8.13;62.42;99766.03;6237895;22;20044;-70
2022/12/29 09:42:41;;;;;;;3.15;1.58;;;;;;;7.88;63.26;99775.00;6237839;22;20015;-69
2022/12/29 09:45:25;;;;;;;3.90;1.30;;;;;;;8.01;63.12;99767.34;6238314;22;20032;-70
2022/12/29 09:47:52;;;;;;;3.30;1.33;;;;;;;7.98;62.96;99750.81;6237600;23;20016;-69
2022/12/29 09:50:24;;;;;;;3.85;1.13;;;;;;;8.25;62.23;99760.31;6223665;23;20061;-70
2022/12/29 09:53:04;;;;;;;3.85;1.33;;;;;;;8.32;62.20;99756.81;6236979;22;20039;-70
2022/12/29 09:55:44;;;;;;;2.10;1.27;;;;;;;8.37;62.15;99769.69;6238633;22;20033;-69
2022/12/29 09:58:30;;;;;;;4.13;1.48;;;;;;;8.59;61.59;99768.94;6235649;22;20023;-73
2022/12/29 10:01:03;;;;;;;4.35;1.70;;;;;;;8.61;61.53;99774.16;6237030;23;20008;-70
2022/12/29 10:04:02;;;;;;;2.00;1.17;;;;;;;8.66;61.39;99771.78;6235623;23;20005;-71
2022/12/29 10:06:42;;;;;;;4.30;1.20;;;;;;;8.72;61.17;99772.94;6214136;23;20008;-69
2022/12/29 10:09:41;;;;;;;2.35;1.25;;;;;;;8.59;61.58;99760.09;6231101;22;20020;-71
2022/12/29 10:12:38;;;;;;;7.95;1.23;;;;;;;8.65;61.76;99771.97;6236019;23;20005;-70
2022/12/29 10:15:44;;;;;;;3.22;1.25;;;;;;;9.19;60.38;99772.91;6236342;22;20016;-71
2022/12/29 10:18:14;;;;;;;7.90;1.05;;;;;;;9.48;58.74;99761.59;6236608;23;20020;-73
2022/12/29 10:20:56;;;;;;;3.97;1.30;;;;;;;9.52;59.21;99770.94;6238157;22;20035;-69
2022/12/29 10:23:40;;;;;;;4.90;1.30;;;;;;;9.93;57.85;99757.28;6237765;23;20065;-71
2022/12/29 10:26:17;;;;;;;2.13;1.17;;;;;;;9.75;58.15;99764.75;6237765;22;20005;-71
2022/12/29 10:29:02;;;;;;;4.60;1.20;;;;;;;9.75;58.03;99765.63;6236273;23;20024;-72
2022/12/29 10:31:37;;;;;;;3.08;1.30;;;;;;;9.82;58.25;99754.16;6237676;23;20036;-71
2022/12/29 10:34:15;;;;;;;3.10;1.40;;;;;;;9.92;57.95;99752.91;6237423;22;20016;-70
2022/12/29 10:36:48;;;;;;;1.90;1.15;;;;;;;9.95;57.88;99749.88;6238962;23;20064;-72
2022/12/29 10:39:43;;;;;;;2.35;1.10;;;;;;;10.17;57.46;99755.41;6239071;23;20076;-71
2022/12/29 10:42:25;;;;;;;5.60;1.15;;;;;;;10.34;56.82;99756.94;6234030;23;20072;-69
2022/12/29 10:44:54;;;;;;;3.58;1.30;;;;;;;10.49;56.17;99747.03;6228266;23;20027;-69
2022/12/29 10:47:28;;;;;;;3.88;1.27;;;;;;;10.21;56.92;99746.00;6234671;23;20020;-68
2022/12/29 10:49:55;;;;;;;2.65;1.00;;;;;;;9.60;58.81;99755.84;6238177;23;20033;-71
2022/12/29 10:52:23;;;;;;;8.45;1.50;;;;;;;9.74;58.30;99749.72;6236842;23;20044;-70
2022/12/29 10:54:55;;;;;;;2.95;1.15;;;;;;;9.64;58.88;99749.13;6235096;23;20034;-70
2022/12/29 10:57:36;;;;;;;3.47;1.15;;;;;;;9.36;59.47;99754.97;6237155;23;20020;-70
2022/12/29 11:00:12;;;;;;;3.28;0.85;;;;;;;9.30;59.73;99755.66;6236392;23;20044;-69
2022/12/29 11:02:57;;;;;;;4.32;1.25;;;;;;;9.28;59.76;99747.81;6235189;23;20032;-70
2022/12/29 11:05:54;;;;;;;4.13;1.30;;;;;;;9.18;60.07;99751.69;6234975;23;20068;-70
2022/12/29 11:08:28;;;;;;;5.00;1.10;;;;;;;9.22;59.72;99753.00;6196999;23;20465;-70
2022/12/29 11:11:06;;;;;;;8.30;1.48;;;;;;;8.89;60.82;99758.50;6239606;23;20052;-70
2022/12/29 11:13:35;;;;;;;5.80;1.50;;;;;;;9.18;60.23;99762.41;6236003;23;20055;-70
2022/12/29 11:16:05;;;;;;;3.00;1.35;;;;;;;8.96;60.89;99756.00;6236708;23;20020;-71
2022/12/29 11:18:33;;;;;;;7.60;1.25;;;;;;;9.16;60.95;99753.69;6235191;23;20080;-71
2022/12/29 11:21:03;;;;;;;3.75;1.10;;;;;;;9.17;61.05;99750.88;6230539;23;20047;-70
2022/12/29 11:23:34;;;;;;;4.55;1.40;;;;;;;8.93;61.90;99767.03;6250280;22;20011;-70
2022/12/29 11:26:21;;;;;;;2.95;1.10;;;;;;;8.92;62.14;99760.84;6236894;23;20025;-71
2022/12/29 11:29:08;;;;;;;3.08;1.20;;;;;;;8.93;62.32;99770.53;6236261;23;20357;-71
2022/12/29 11:31:52;;;;;;;6.75;1.13;;;;;;;8.95;62.37;99768.50;6234542;23;20040;-70
2022/12/29 11:34:25;;;;;;;5.43;1.30;;;;;;;8.99;63.31;99766.31;6233686;23;20021;-71
2022/12/29 11:36:59;;;;;;;3.90;1.05;;;;;;;8.72;64.79;99783.66;6234475;23;20076;-69
2022/12/29 11:39:52;;;;;;;1.55;0.77;;;;;;;8.79;64.82;99784.63;6234880;23;20021;-71
2022/12/29 11:42:31;;;;;;;3.17;1.40;;;;;;;8.70;65.77;99772.28;6221305;23;20083;-69
2022/12/29 11:45:14;;;;;;;3.22;1.33;;;;;;;8.76;65.80;99774.28;6226988;23;20028;-71
2022/12/29 11:47:45;;;;;;;4.65;1.13;;;;;;;8.60;65.99;99770.63;6235266;23;20032;-69
2022/12/29 11:50:19;;;;;;;2.88;1.05;;;;;;;8.68;65.91;99779.63;6234411;23;20032;-70
2022/12/29 11:52:47;;;;;;;5.53;1.35;;;;;;;8.55;66.75;99783.66;6235656;23;20039;-71
2022/12/29 11:55:21;;;;;;;3.28;1.20;;;;;;;8.51;67.03;99785.03;6235117;23;20021;-74
2022/12/29 11:57:50;;;;;;;3.50;0.93;;;;;;;8.47;67.63;99786.38;6235578;23;20028;-70
2022/12/29 12:00:24;;;;;;;3.78;1.23;;;;;;;8.42;68.19;99798.56;6235314;23;20043;-69
2022/12/29 12:03:04;;;;;;;4.75;1.63;;;;;;;8.34;68.57;99799.41;6233053;23;20029;-69
2022/12/29 12:05:46;;;;;;;2.47;1.02;;;;;;;8.47;69.55;99804.22;6234233;23;20025;-68
2022/12/29 12:11:33;;;;;;;3.80;1.20;;;;;;;8.00;71.87;99794.22;6216965;22;20021;-71
2022/12/29 12:14:05;;;;;;;5.05;0.77;;;;;;;7.85;72.38;99799.41;6236151;23;20059;-68
2022/12/29 12:16:41;;;;;;;2.90;1.02;;;;;;;7.94;71.76;99803.72;6246837;23;20020;-69
2022/12/29 12:19:43;;;;;;;2.78;1.10;;;;;;;7.69;72.72;99799.34;6239637;22;20021;-69
2022/12/29 12:22:15;;;;;;;3.55;0.80;;;;;;;7.74;73.41;99805.88;6174569;22;20004;-70
2022/12/29 12:25:00;;;;;;;2.50;0.90;;;;;;;7.65;73.70;99793.50;6238756;22;20024;-69
2022/12/29 12:27:57;;;;;;;1.55;0.88;;;;;;;7.75;74.02;99799.53;6239526;22;20011;-71
2022/12/29 12:30:27;;;;;;;2.17;1.08;;;;;;;7.71;73.74;99798.19;6230604;22;20048;-70
2022/12/29 12:33:05;;;;;;;3.30;1.08;;;;;;;7.43;73.95;99803.78;6237864;22;20028;-69
2022/12/29 12:35:51;;;;;;;3.75;1.20;;;;;;;7.58;73.65;99795.16;6238522;22;20021;-71
2022/12/29 12:38:20;;;;;;;3.15;1.52;;;;;;;7.85;73.46;99786.06;6239816;22;20021;-67
2022/12/29 12:40:53;;;;;;;5.28;1.33;;;;;;;7.62;73.43;99781.31;6231624;22;20028;-67
2022/12/29 12:43:32;;;;;;;2.80;1.20;;;;;;;7.74;72.87;99787.19;6237695;22;20015;-71